No particular awareness of the weather is required.    There are no Weather-warnings


Meteo18 Weather Cam more information Meteo18 Weather Cam


Thunder radar more information blitzortung!


Rain radar more information rain snow radar


Visit our other weather sites:

Template documentation
and downloads

And another site



Weather Underground History page Text

Daily Summary for May 17, 2017 Units:  English    Metric   Both
« Previous Day
Next Day »
Daily Weekly Monthly Yearly Custom
  High: Low: Average:
Temperature: TemperatureC °F 12.0 °F 21 °F
Dew Point: DewpointC °F 10.7 °F 14.2 °F
Humidity: Humidity % 42 % 67 %
Wind Speed: WindSpeedKMH mph 0.0 mph 4.6 mph
Wind Gust: WindSpeedGustKMH mph - -
Wind:- - SSW
Pressure: PressurehPa in 1013.8 in -
Precipitation: 0.0 in    
Historical Graphs
 
 
Tabular Data for May 17, 2017
Time Temperature Dew Point Pressure Wind Wind Speed Wind Gust Humidity Rainfall Rate (Hourly)
TemperatureC °F DewpointC °F PressurehPa in Calm     Humidity % HourlyPrecipMM in
00:02 17.6 °F 12.9 °F 1024.6 in Calm   3.2 mph 74 % 0.0 in
00:12 17.3 °F 12.8 °F 1024.6 in WNW 1.6 mph 3.2 mph 75 % 0.0 in
00:17 16.8 °F 12.7 °F 1024.6 in WNW 3.2 mph 3.2 mph 77 % 0.0 in
00:22 16.6 °F 12.7 °F 1024.6 in Calm   3.2 mph 78 % 0.0 in
00:32 16.6 °F 12.9 °F 1024.6 in Calm   3.2 mph 79 % 0.0 in
00:37 16.7 °F 12.8 °F 1024.3 in Calm   3.2 mph 78 % 0.0 in
00:42 16.7 °F 12.8 °F 1024.3 in Calm   1.6 mph 78 % 0.0 in
00:52 16.8 °F 12.7 °F 1024.3 in Calm   1.6 mph 77 % 0.0 in
00:57 16.6 °F 12.7 °F 1024.3 in NW 1.6 mph 1.6 mph 78 % 0.0 in
01:02 16.3 °F 12.7 °F 1024.3 in NW 1.6 mph 1.6 mph 79 % 0.0 in
01:07 16.3 °F 12.8 °F 1024.3 in Calm   1.6 mph 80 % 0.0 in
01:12 16.8 °F 12.9 °F 1024.3 in Calm   1.6 mph 78 % 0.0 in
01:17 17.1 °F 12.8 °F 1024.3 in Calm   1.6 mph 76 % 0.0 in
01:22 16.9 °F 12.6 °F 1024.3 in WNW 1.6 mph 1.6 mph 76 % 0.0 in
01:27 16.1 °F 12.5 °F 1024.3 in WNW 3.2 mph 3.2 mph 79 % 0.0 in
01:32 16.1 °F 12.8 °F 1024.3 in NW 1.6 mph 3.2 mph 81 % 0.0 in
01:42 16.3 °F 12.8 °F 1023.9 in NNE 1.6 mph 3.2 mph 80 % 0.0 in
01:47 16.4 °F 12.7 °F 1023.9 in NNE 4.8 mph 6.4 mph 79 % 0.0 in
01:52 16.7 °F 12.8 °F 1023.9 in NNE 3.2 mph 6.4 mph 78 % 0.0 in
01:57 16.6 °F 12.7 °F 1023.9 in NNE 4.8 mph 6.4 mph 78 % 0.0 in
02:02 16.6 °F 12.9 °F 1023.9 in NNE 1.6 mph 6.4 mph 79 % 0.0 in
02:07 16.4 °F 12.7 °F 1023.9 in Calm   4.8 mph 79 % 0.0 in
02:12 16.4 °F 12.7 °F 1023.9 in Calm   4.8 mph 79 % 0.0 in
02:17 16.3 °F 12.8 °F 1023.9 in Calm   3.2 mph 80 % 0.0 in
02:22 16.3 °F 12.8 °F 1023.9 in Calm   1.6 mph 80 % 0.0 in
02:27 16.2 °F 12.7 °F 1023.9 in Calm   1.6 mph 80 % 0.0 in
02:37 15.7 °F 12.4 °F 1023.6 in Calm     81 % 0.0 in
02:47 15.1 °F 12.4 °F 1023.6 in Calm     84 % 0.0 in
02:52 15.1 °F 12.6 °F 1023.2 in Calm     85 % 0.0 in
03:02 14.8 °F 12.5 °F 1023.2 in Calm     86 % 0.0 in
03:12 14.9 °F 12.4 °F 1023.2 in Calm     85 % 0.0 in
03:17 14.4 °F 11.7 °F 1023.2 in WNW 1.6 mph 4.8 mph 84 % 0.0 in
03:22 14.3 °F 12.2 °F 1023.2 in WNW 1.6 mph 4.8 mph 87 % 0.0 in
03:32 14.3 °F 11.8 °F 1022.9 in Calm   3.2 mph 85 % 0.0 in
03:42 13.9 °F 11.9 °F 1022.9 in Calm     88 % 0.0 in
03:47 13.9 °F 11.9 °F 1022.9 in Calm     88 % 0.0 in
03:52 13.8 °F 11.8 °F 1022.9 in Calm     88 % 0.0 in
03:57 13.7 °F 11.7 °F 1022.9 in Calm     88 % 0.0 in
04:02 13.6 °F 11.8 °F 1022.9 in Calm     89 % 0.0 in
04:07 13.6 °F 11.8 °F 1022.6 in Calm     89 % 0.0 in
04:12 13.7 °F 11.9 °F 1022.6 in Calm     89 % 0.0 in
04:17 13.8 °F 12.0 °F 1022.6 in NNE 3.2 mph   89 % 0.0 in
04:22 13.9 °F 11.8 °F 1022.6 in NNE 3.2 mph 4.8 mph 87 % 0.0 in
04:27 13.9 °F 11.8 °F 1022.2 in Calm   4.8 mph 87 % 0.0 in
04:32 13.1 °F 10.8 °F 1022.6 in WNW 1.6 mph 4.8 mph 86 % 0.0 in
04:37 12.9 °F 11.1 °F 1022.2 in WNW 1.6 mph 3.2 mph 89 % 0.0 in
04:42 12.8 °F 11.0 °F 1022.2 in Calm   3.2 mph 89 % 0.0 in
04:47 12.7 °F 11.1 °F 1022.2 in Calm   3.2 mph 90 % 0.0 in
04:52 12.7 °F 11.3 °F 1022.2 in Calm   3.2 mph 91 % 0.0 in
04:57 12.5 °F 11.1 °F 1022.2 in Calm     91 % 0.0 in
05:02 12.6 °F 11.2 °F 1022.2 in Calm     91 % 0.0 in
05:12 12.8 °F 11.4 °F 1021.9 in Calm   1.6 mph 91 % 0.0 in
05:17 12.7 °F 11.3 °F 1021.9 in Calm   1.6 mph 91 % 0.0 in
05:22 12.6 °F 11.2 °F 1021.6 in Calm   1.6 mph 91 % 0.0 in
05:27 12.7 °F 11.3 °F 1021.6 in Calm     91 % 0.0 in
05:32 12.8 °F 11.4 °F 1021.6 in Calm   1.6 mph 91 % 0.0 in
05:37 12.8 °F 11.2 °F 1021.6 in Calm   1.6 mph 90 % 0.0 in
05:42 12.6 °F 11.0 °F 1021.6 in Calm   1.6 mph 90 % 0.0 in
05:47 12.4 °F 10.8 °F 1021.6 in Calm     90 % 0.0 in
05:52 12.1 °F 10.7 °F 1021.6 in WNW 3.2 mph 3.2 mph 91 % 0.0 in
05:57 12.0 °F 10.7 °F 1021.6 in WNW 1.6 mph 3.2 mph 92 % 0.0 in
06:02 12.1 °F 10.8 °F 1021.6 in North 1.6 mph 3.2 mph 92 % 0.0 in
06:07 12.2 °F 11.1 °F 1021.6 in Calm   3.2 mph 93 % 0.0 in
06:12 12.3 °F 11.0 °F 1021.6 in Calm   3.2 mph 92 % 0.0 in
06:17 12.2 °F 10.9 °F 1021.6 in Calm   1.6 mph 92 % 0.0 in
06:22 12.3 °F 11.0 °F 1021.6 in Calm   1.6 mph 92 % 0.0 in
06:32 12.6 °F 11.2 °F 1021.6 in Calm     91 % 0.0 in
06:42 12.8 °F 11.4 °F 1021.6 in Calm     91 % 0.0 in
06:52 12.7 °F 11.1 °F 1021.2 in Calm   1.6 mph 90 % 0.0 in
07:02 12.7 °F 11.3 °F 1021.6 in WNW 1.6 mph 1.6 mph 91 % 0.0 in
07:12 12.9 °F 11.6 °F 1021.2 in Calm   1.6 mph 92 % 0.0 in
07:17 13.1 °F 11.8 °F 1021.2 in North 3.2 mph 3.2 mph 92 % 0.0 in
07:22 13.6 °F 12.0 °F 1021.2 in Calm   3.2 mph 90 % 0.0 in
07:32 14.6 °F 12.5 °F 1021.2 in Calm   3.2 mph 87 % 0.0 in
07:42 15.2 °F 12.1 °F 1021.2 in Calm     82 % 0.0 in
07:47 15.1 °F 12.4 °F 1021.2 in Calm     84 % 0.0 in
07:52 15.8 °F 13.1 °F 1021.2 in Calm     84 % 0.0 in
07:57 16.6 °F 13.1 °F 1021.2 in Calm     80 % 0.0 in
08:02 17.1 °F 13.0 °F 1021.2 in Calm   1.6 mph 77 % 0.0 in
08:12 17.9 °F 12.8 °F 1021.2 in Calm   1.6 mph 72 % 0.0 in
08:17 17.9 °F 12.8 °F 1020.9 in Calm   1.6 mph 72 % 0.0 in
08:22 17.9 °F 12.6 °F 1021.2 in Calm   1.6 mph 71 % 0.0 in
08:32 17.9 °F 12.8 °F 1020.9 in Calm   3.2 mph 72 % 0.0 in
08:37 18.0 °F 12.9 °F 1020.9 in Calm   4.8 mph 72 % 0.0 in
08:42 18.3 °F 13.2 °F 1020.9 in Calm   4.8 mph 72 % 0.0 in
08:47 17.9 °F 13.0 °F 1020.5 in East 1.6 mph 4.8 mph 73 % 0.0 in
08:52 17.7 °F 13.0 °F 1020.5 in ENE 1.6 mph 4.8 mph 74 % 0.0 in
08:57 18.1 °F 13.4 °F 1020.5 in East 1.6 mph 4.8 mph 74 % 0.0 in
09:02 18.1 °F 13.4 °F 1020.5 in Calm   4.8 mph 74 % 0.0 in
09:12 18.6 °F 13.7 °F 1020.5 in East 1.6 mph 4.8 mph 73 % 0.0 in
09:17 18.4 °F 13.3 °F 1020.5 in ENE 4.8 mph 4.8 mph 72 % 0.0 in
09:22 18.1 °F 13.2 °F 1020.5 in East 4.8 mph 4.8 mph 73 % 0.0 in
09:27 18.2 °F 13.7 °F 1020.5 in East 1.6 mph 6.4 mph 75 % 0.0 in
09:32 18.6 °F 13.7 °F 1020.5 in East 3.2 mph 6.4 mph 73 % 0.0 in
09:37 18.7 °F 14.2 °F 1020.2 in Calm   6.4 mph 75 % 0.0 in
09:42 19.1 °F 13.9 °F 1020.2 in East 1.6 mph 6.4 mph 72 % 0.0 in
09:47 19.4 °F 14.4 °F 1020.2 in Calm   4.8 mph 73 % 0.0 in
09:52 19.6 °F 14.6 °F 1020.2 in ENE 1.6 mph 4.8 mph 73 % 0.0 in
09:57 19.6 °F 14.6 °F 1020.2 in Calm   6.4 mph 73 % 0.0 in
10:02 19.9 °F 14.7 °F 1020.2 in ESE 1.6 mph 8.0 mph 72 % 0.0 in
10:12 20.3 °F 14.9 °F 1019.9 in ENE 1.6 mph 8.0 mph 71 % 0.0 in
10:17 20.4 °F 15.0 °F 1019.9 in ENE 8.0 mph 8.0 mph 71 % 0.0 in
10:22 20.4 °F 15.0 °F 1019.9 in ENE 1.6 mph 9.7 mph 71 % 0.0 in
10:32 21.0 °F 15.3 °F 1019.9 in East 1.6 mph 9.7 mph 70 % 0.0 in
10:42 20.8 °F 15.3 °F 1019.5 in SSE 3.2 mph 6.4 mph 71 % 0.0 in
10:47 21.3 °F 15.6 °F 1019.5 in ENE 3.2 mph 8.0 mph 70 % 0.0 in
10:52 21.6 °F 15.4 °F 1019.5 in SE 6.4 mph 8.0 mph 68 % 0.0 in
10:57 21.7 °F 15.5 °F 1019.5 in ENE 1.6 mph 8.0 mph 68 % 0.0 in
11:02 21.8 °F 15.4 °F 1019.2 in Calm   6.4 mph 67 % 0.0 in
11:12 22.4 °F 15.5 °F 1019.2 in ENE 3.2 mph 8.0 mph 65 % 0.0 in
11:17 22.4 °F 15.5 °F 1019.2 in East 1.6 mph 8.0 mph 65 % 0.0 in
11:22 22.6 °F 16.2 °F 1018.8 in ENE 1.6 mph 6.4 mph 67 % 0.0 in
11:27 22.9 °F 16.4 °F 1018.8 in SE 3.2 mph 6.4 mph 67 % 0.0 in
11:32 23.3 °F 16.6 °F 1018.8 in ENE 3.2 mph 6.4 mph 66 % 0.0 in
11:42 23.4 °F 16.9 °F 1018.8 in East 3.2 mph 6.4 mph 67 % 0.0 in
11:47 23.9 °F 16.7 °F 1018.8 in SE 4.8 mph 8.0 mph 64 % 0.0 in
11:52 24.0 °F 16.0 °F 1018.8 in South 3.2 mph 11.3 mph 61 % 0.0 in
12:02 24.1 °F 16.1 °F 1018.5 in SE 9.7 mph 11.3 mph 61 % 0.0 in
12:12 24.1 °F 16.1 °F 1018.5 in South 8.0 mph 11.3 mph 61 % 0.0 in
12:17 24.4 °F 16.4 °F 1018.2 in ESE 4.8 mph 12.9 mph 61 % 0.0 in
12:22 24.4 °F 16.1 °F 1018.2 in WSW 1.6 mph 12.9 mph 60 % 0.0 in
12:32 24.7 °F 16.7 °F 1018.2 in SE 4.8 mph 12.9 mph 61 % 0.0 in
12:37 24.8 °F 16.5 °F 1018.2 in SSW 6.4 mph 12.9 mph 60 % 0.0 in
12:42 24.9 °F 16.1 °F 1018.2 in South 3.2 mph 12.9 mph 58 % 0.0 in
12:47 24.9 °F 16.6 °F 1018.2 in East 4.8 mph 16.1 mph 60 % 0.0 in
12:52 25.1 °F 16.5 °F 1017.8 in SSE 3.2 mph 16.1 mph 59 % 0.0 in
13:02 25.2 °F 16.3 °F 1017.8 in SSW 8.0 mph 12.9 mph 58 % 0.0 in
13:07 25.4 °F 16.3 °F 1017.8 in South 6.4 mph 12.9 mph 57 % 0.0 in
13:12 25.7 °F 16.0 °F 1017.8 in SSE 4.8 mph 14.5 mph 55 % 0.0 in
13:17 26.0 °F 16.5 °F 1017.8 in SSE 3.2 mph 14.5 mph 56 % 0.0 in
13:22 25.9 °F 15.9 °F 1017.8 in SW 12.9 mph 14.5 mph 54 % 0.0 in
13:27 25.8 °F 15.2 °F 1017.5 in SSE 6.4 mph 19.3 mph 52 % 0.0 in
13:32 25.9 °F 15.3 °F 1017.5 in SW 11.3 mph 19.3 mph 52 % 0.0 in
13:37 26.1 °F 15.5 °F 1017.5 in SSE 6.4 mph 19.3 mph 52 % 0.0 in
13:42 26.2 °F 15.0 °F 1017.2 in SW 8.0 mph 17.7 mph 50 % 0.0 in
13:47 26.2 °F 15.6 °F 1017.2 in SSW 4.8 mph 17.7 mph 52 % 0.0 in
13:52 26.4 °F 15.1 °F 1017.2 in WSW 9.7 mph 17.7 mph 50 % 0.0 in
13:57 26.4 °F 13.8 °F 1017.2 in SW 17.7 mph 17.7 mph 46 % 0.0 in
14:02 26.5 °F 14.6 °F 1017.2 in SSW 6.4 mph 22.5 mph 48 % 0.0 in
14:07 26.5 °F 15.2 °F 1017.2 in SW 12.9 mph 22.5 mph 50 % 0.0 in
14:12 26.7 °F 15.1 °F 1017.2 in SW 11.3 mph 19.3 mph 49 % 0.0 in
14:17 26.6 °F 15.6 °F 1017.2 in SSW 8.0 mph 19.3 mph 51 % 0.0 in
14:22 26.7 °F 15.4 °F 1017.2 in SW 6.4 mph 16.1 mph 50 % 0.0 in
14:27 27.0 °F 16.0 °F 1017.2 in SW 14.5 mph 16.1 mph 51 % 0.0 in
14:32 27.1 °F 14.5 °F 1016.8 in WSW 12.9 mph 16.1 mph 46 % 0.0 in
14:37 27.3 °F 14.3 °F 1016.8 in SW 4.8 mph 16.1 mph 45 % 0.0 in
14:42 27.2 °F 14.2 °F 1016.8 in SW 4.8 mph 16.1 mph 45 % 0.0 in
14:47 27.5 °F 15.2 °F 1016.8 in SW 11.3 mph 16.1 mph 47 % 0.0 in
14:52 27.4 °F 14.4 °F 1016.8 in SW 17.7 mph 17.7 mph 45 % 0.0 in
14:57 27.3 °F 14.3 °F 1016.5 in WSW 14.5 mph 17.7 mph 45 % 0.0 in
15:02 27.2 °F 14.9 °F 1016.5 in SW 11.3 mph 20.9 mph 47 % 0.0 in
15:07 27.2 °F 15.2 °F 1016.5 in SSW 9.7 mph 20.9 mph 48 % 0.0 in
15:12 27.2 °F 14.2 °F 1016.5 in SW 14.5 mph 20.9 mph 45 % 0.0 in
15:17 27.3 °F 14.7 °F 1016.5 in SSW 12.9 mph 17.7 mph 46 % 0.0 in
15:22 27.2 °F 14.2 °F 1016.1 in SW 6.4 mph 19.3 mph 45 % 0.0 in
15:27 27.3 °F 14.7 °F 1016.1 in SW 8.0 mph 19.3 mph 46 % 0.0 in
15:32 27.4 °F 15.1 °F 1016.1 in WSW 11.3 mph 19.3 mph 47 % 0.0 in
15:37 27.6 °F 14.6 °F 1016.1 in SW 6.4 mph 16.1 mph 45 % 0.0 in
15:42 27.5 °F 14.5 °F 1016.1 in SSW 9.7 mph 19.3 mph 45 % 0.0 in
15:47 27.4 °F 14.8 °F 1016.1 in WSW 4.8 mph 19.3 mph 46 % 0.0 in
15:52 27.6 °F 14.9 °F 1016.1 in SW 6.4 mph 19.3 mph 46 % 0.0 in
15:57 27.7 °F 15.0 °F 1015.8 in WSW 3.2 mph 17.7 mph 46 % 0.0 in
16:02 27.8 °F 14.4 °F 1015.8 in SW 8.0 mph 12.9 mph 44 % 0.0 in
16:07 27.9 °F 14.2 °F 1015.8 in SSW 4.8 mph 14.5 mph 43 % 0.0 in
16:12 27.8 °F 14.1 °F 1015.5 in West 11.3 mph 14.5 mph 43 % 0.0 in
16:17 27.7 °F 14.3 °F 1015.5 in SW 9.7 mph 19.3 mph 44 % 0.0 in
16:22 27.9 °F 13.8 °F 1015.5 in WSW 9.7 mph 19.3 mph 42 % 0.0 in
16:27 27.8 °F 14.4 °F 1015.5 in SW 4.8 mph 17.7 mph 44 % 0.0 in
16:32 27.8 °F 14.1 °F 1015.5 in SE 3.2 mph 17.7 mph 43 % 0.0 in
16:37 27.7 °F 14.3 °F 1015.5 in SW 4.8 mph 17.7 mph 44 % 0.0 in
16:42 27.5 °F 13.8 °F 1015.1 in SW 6.4 mph 19.3 mph 43 % 0.0 in
16:47 27.6 °F 14.6 °F 1015.1 in SW 9.7 mph 19.3 mph 45 % 0.0 in
16:52 27.6 °F 14.2 °F 1015.1 in SSW 4.8 mph 19.3 mph 44 % 0.0 in
16:57 27.7 °F 14.3 °F 1015.1 in SSW 9.7 mph 17.7 mph 44 % 0.0 in
17:02 27.8 °F 14.8 °F 1015.1 in South 6.4 mph 17.7 mph 45 % 0.0 in
17:07 27.8 °F 14.1 °F 1015.1 in SW 8.0 mph 14.5 mph 43 % 0.0 in
17:12 27.7 °F 15.0 °F 1014.8 in SW 11.3 mph 14.5 mph 46 % 0.0 in
17:17 27.6 °F 13.9 °F 1014.8 in SSW 11.3 mph 20.9 mph 43 % 0.0 in
17:22 27.6 °F 14.6 °F 1014.8 in SW 9.7 mph 20.9 mph 45 % 0.0 in
17:32 27.3 °F 15.3 °F 1014.8 in SSW 8.0 mph 16.1 mph 48 % 0.0 in
17:37 27.2 °F 14.9 °F 1014.8 in SW 9.7 mph 12.9 mph 47 % 0.0 in
17:42 27.1 °F 16.1 °F 1014.8 in SSW 8.0 mph 14.5 mph 51 % 0.0 in
17:47 27.1 °F 16.4 °F 1014.4 in SW 6.4 mph 14.5 mph 52 % 0.0 in
17:52 27.1 °F 16.1 °F 1014.4 in SSW 3.2 mph 14.5 mph 51 % 0.0 in
17:57 27.2 °F 16.2 °F 1014.4 in SW 6.4 mph 12.9 mph 51 % 0.0 in
18:02 27.5 °F 16.5 °F 1014.4 in WSW 8.0 mph 14.5 mph 51 % 0.0 in
18:07 27.5 °F 15.5 °F 1014.4 in South 8.0 mph 14.5 mph 48 % 0.0 in
18:12 27.4 °F 14.8 °F 1014.4 in SSW 8.0 mph 14.5 mph 46 % 0.0 in
18:17 27.3 °F 14.7 °F 1014.4 in SSE 9.7 mph 14.5 mph 46 % 0.0 in
18:22 27.3 °F 14.7 °F 1014.4 in SW 14.5 mph 14.5 mph 46 % 0.0 in
18:32 27.0 °F 15.7 °F 1014.4 in SW 4.8 mph 14.5 mph 50 % 0.0 in
18:42 26.8 °F 16.1 °F 1014.1 in SW 3.2 mph 12.9 mph 52 % 0.0 in
18:47 26.7 °F 15.7 °F 1014.1 in SSW 8.0 mph 11.3 mph 51 % 0.0 in
18:52 26.5 °F 16.4 °F 1014.1 in SW 6.4 mph 11.3 mph 54 % 0.0 in
18:57 26.3 °F 16.2 °F 1014.1 in SW 4.8 mph 9.7 mph 54 % 0.0 in
19:02 26.3 °F 16.0 °F 1014.1 in SW 4.8 mph 9.7 mph 53 % 0.0 in
19:07 26.2 °F 16.2 °F 1014.1 in SSW 3.2 mph 9.7 mph 54 % 0.0 in
19:12 26.3 °F 16.0 °F 1014.1 in SSW 4.8 mph 9.7 mph 53 % 0.0 in
19:17 26.3 °F 16.2 °F 1013.8 in SW 3.2 mph 9.7 mph 54 % 0.0 in
19:22 26.6 °F 16.5 °F 1014.1 in SW 4.8 mph 8.0 mph 54 % 0.0 in
19:27 26.7 °F 16.0 °F 1014.1 in WSW 3.2 mph 8.0 mph 52 % 0.0 in
19:32 26.7 °F 16.0 °F 1014.1 in SSW 8.0 mph 8.0 mph 52 % 0.0 in
19:37 26.8 °F 15.8 °F 1014.1 in SW 8.0 mph 8.0 mph 51 % 0.0 in
19:42 26.9 °F 16.2 °F 1013.8 in WSW 3.2 mph 11.3 mph 52 % 0.0 in
19:47 26.9 °F 15.9 °F 1013.8 in WSW 6.4 mph 11.3 mph 51 % 0.0 in
19:52 26.7 °F 16.3 °F 1013.8 in South 4.8 mph 11.3 mph 53 % 0.0 in
19:57 26.6 °F 16.5 °F 1013.8 in SW 6.4 mph 11.3 mph 54 % 0.0 in
20:02 26.5 °F 16.7 °F 1013.8 in SW 3.2 mph 11.3 mph 55 % 0.0 in
20:07 26.3 °F 16.5 °F 1013.8 in SW 6.4 mph 11.3 mph 55 % 0.0 in
20:12 26.2 °F 16.7 °F 1013.8 in WSW 3.2 mph 8.0 mph 56 % 0.0 in
20:17 26.1 °F 16.4 °F 1013.8 in SW 4.8 mph 8.0 mph 55 % 0.0 in
20:22 25.9 °F 15.9 °F 1013.8 in SW 4.8 mph 8.0 mph 54 % 0.0 in
20:27 25.9 °F 15.9 °F 1013.8 in WSW 4.8 mph 8.0 mph 54 % 0.0 in
20:32 25.8 °F 15.8 °F 1013.8 in SSW 6.4 mph 8.0 mph 54 % 0.0 in
20:37 25.6 °F 16.2 °F 1013.8 in SSW 3.2 mph 8.0 mph 56 % 0.0 in
20:47 25.3 °F 16.2 °F 1013.8 in WSW 3.2 mph 8.0 mph 57 % 0.0 in
20:52 25.2 °F 16.1 °F 1013.8 in SW 3.2 mph 8.0 mph 57 % 0.0 in
20:57 25.1 °F 16.3 °F 1013.8 in WSW 4.8 mph 8.0 mph 58 % 0.0 in
21:02 24.9 °F 15.8 °F 1013.8 in WSW 1.6 mph 8.0 mph 57 % 0.0 in
21:07 24.8 °F 15.7 °F 1013.8 in SW 1.6 mph 8.0 mph 57 % 0.0 in
21:12 24.6 °F 15.5 °F 1013.8 in WSW 3.2 mph 9.7 mph 57 % 0.0 in
21:17 24.4 °F 15.9 °F 1013.8 in WSW 3.2 mph 9.7 mph 59 % 0.0 in
21:22 24.2 °F 17.0 °F 1013.8 in West 14.5 mph 14.5 mph 64 % 0.0 in
21:27 23.3 °F 16.1 °F 1014.1 in WNW 11.3 mph 25.7 mph 64 % 0.0 in
21:32 22.9 °F 16.0 °F 1014.4 in WNW 17.7 mph 25.7 mph 65 % 0.0 in
21:37 22.6 °F 15.9 °F 1014.4 in WNW 6.4 mph 25.7 mph 66 % 0.0 in
21:42 22.3 °F 15.9 °F 1014.4 in WNW 3.2 mph 22.5 mph 67 % 0.0 in
21:47 22.0 °F 15.8 °F 1014.4 in NW 3.2 mph 22.5 mph 68 % 0.0 in
21:52 21.8 °F 15.9 °F 1014.4 in WNW 6.4 mph 20.9 mph 69 % 0.0 in
21:57 21.6 °F 15.9 °F 1014.4 in WNW 11.3 mph 17.7 mph 70 % 0.0 in
22:02 21.4 °F 15.9 °F 1014.4 in WNW 9.7 mph 17.7 mph 71 % 0.0 in
22:07 21.4 °F 15.9 °F 1014.8 in West 17.7 mph 20.9 mph 71 % 0.0 in
22:12 21.3 °F 16.0 °F 1014.8 in NW 4.8 mph 24.1 mph 72 % 0.0 in
22:17 21.1 °F 15.9 °F 1014.8 in WNW 4.8 mph 24.1 mph 72 % 0.0 in
22:22 20.9 °F 15.9 °F 1015.1 in West 12.9 mph 24.1 mph 73 % 0.0 in
22:27 20.8 °F 16.2 °F 1015.1 in West 9.7 mph 22.5 mph 75 % 0.0 in
22:32 20.6 °F 16.0 °F 1015.1 in WNW 16.1 mph 29.0 mph 75 % 0.0 in
22:37 20.4 °F 15.8 °F 1015.1 in West 9.7 mph 29.0 mph 75 % 0.0 in
22:42 20.2 °F 15.8 °F 1015.1 in WNW 8.0 mph 29.0 mph 76 % 0.0 in
22:47 20.0 °F 15.6 °F 1015.5 in WNW 11.3 mph 30.6 mph 76 % 0.0 in
22:52 19.9 °F 15.5 °F 1015.5 in WNW 9.7 mph 30.6 mph 76 % 0.0 in
22:57 19.7 °F 15.3 °F 1015.5 in West 8.0 mph 30.6 mph 76 % 0.0 in
23:02 19.6 °F 15.3 °F 1015.5 in WNW 6.4 mph 30.6 mph 76 % 0.0 in
23:07 19.5 °F 15.2 °F 1015.5 in West 11.3 mph 22.5 mph 76 % 0.0 in
23:12 19.4 °F 15.1 °F 1015.5 in West 9.7 mph 24.1 mph 76 % 0.0 in
23:17 19.3 °F 15.2 °F 1015.5 in West 17.7 mph 24.1 mph 77 % 0.0 in
23:22 19.2 °F 15.1 °F 1015.5 in WNW 4.8 mph 22.5 mph 77 % 0.0 in
23:27 19.1 °F 15.2 °F 1015.5 in WNW 12.9 mph 27.4 mph 78 % 0.0 in
23:32 19.0 °F 15.1 °F 1015.5 in West 8.0 mph 27.4 mph 78 % 0.0 in
23:37 18.8 °F 14.9 °F 1015.5 in WSW 6.4 mph 27.4 mph 78 % 0.0 in
23:42 18.7 °F 14.8 °F 1015.5 in WNW 3.2 mph 16.1 mph 78 % 0.0 in
23:52 18.6 °F 14.9 °F 1015.5 in West 6.4 mph 17.7 mph 79 % 0.0 in
23:57 18.4 °F 14.9 °F 1015.8 in West 6.4 mph 17.7 mph 80 % 0.0 in
Meteo18
Compliments of Weather Underground - 4 mb

Script developed by  Jim McMurry - jmcmurry@mwt.net Adapted for the template by  Wim van der Kuil - Leuven-Template.eu

You find our weather info also at:

European Weather Network

Weather Underground

Equipment we use:

Weather-station
Davis Vue

Weather-program
Meteobridge

Weather-server
Raspberry PI 2 B+

Provider
1 and 1

Davis Vue

Meteobridge

Raspberry PI 2 B+

1 and 1